Morgan Ray — WDF6085 — position and weather

sailwx.info

Track history (hours):
 
Tides and Currents Weather Stations Pressure Air Temp Water Temp Dewpoint Dewpoint Depression Visibility Wind Speed Wind Dir Waves Ship Positions

Morgan Ray

More information available from US FCC via Universal Licensing System and Coast Guard Vessel Documentation Center.

Last reported at 2014-Aug-11 11:08 UTC. Time now 2014-Aug-27 17:10 UTC.
Position N 29°54' W 090°05'.
Warning: this ship's position is 16 days out of date.

Length 20 m; draft 2 m.

Type: Tug. MMSI: 367470470.

Date/timePositionNaut miles runAvg speedWind from/ knotsBaromVisibWave heightAir tempDewpointWater temp
2014-Aug-11 11:08N 29°54' W 090°05'0 0.0
2014-Aug-11 10:32N 29°54' W 090°05'0 0.0
2014-Aug-11 06:25N 29°54' W 090°05'0 0.0
2014-Aug-10 10:19N 29°54' W 090°05'0 0.0
2014-Aug-10 09:30N 29°54' W 090°05'0 0.0
2014-Aug-10 08:25N 29°54' W 090°05'0 0.0
2014-Aug-10 07:33N 29°54' W 090°05'0 0.0
2014-Aug-09 07:13N 29°54' W 090°05'23 0.7
2014-Aug-08 00:05N 29°36' W 090°22'4 6.6
2014-Aug-07 23:33N 29°33' W 090°24'0 0.1
2014-Aug-07 22:31N 29°33' W 090°24'3 1.4
2014-Aug-07 20:27N 29°36' W 090°22'37 0.7
2014-Aug-05 17:33N 29°38' W 091°05'4 3.7
2014-Aug-05 16:34N 29°40' W 091°08'0 0.0
2014-Aug-05 15:33N 29°40' W 091°08'0 0.0
2014-Aug-05 14:33N 29°40' W 091°08'2 1.8
2014-Aug-05 13:33N 29°41' W 091°10'4 3.9
2014-Aug-05 12:33N 29°40' W 091°14'0 0.0
2014-Aug-05 11:33N 29°40' W 091°14'1 1.1
2014-Aug-05 10:33N 29°41' W 091°13'6 6.5
2014-Aug-05 09:33N 29°46' W 091°18'9 9.1
2014-Aug-05 08:33N 29°52' W 091°25'13 9.1
2014-Aug-05 07:06N 30°05' W 091°29'  
Track history (hours):
 
Tides and Currents Weather Stations Pressure Air Temp Water Temp Dewpoint Dewpoint Depression Visibility Wind Speed Wind Dir Waves Ship Positions

Morgan Ray

More information available from US FCC via Universal Licensing System and Coast Guard Vessel Documentation Center.

Last reported at 2014-Aug-11 11:08 UTC. Time now 2014-Aug-27 17:10 UTC.
Position N 29°54' W 090°05'.
Warning: this ship's position is 16 days out of date.

Length 20 m; draft 2 m.

Type: Tug. MMSI: 367470470.

Date/timePositionNaut miles runAvg speedWind from/ knotsBaromVisibWave heightAir tempDewpointWater temp
2014-Aug-11 11:08N 29°54' W 090°05'0 0.0
2014-Aug-11 10:32N 29°54' W 090°05'0 0.0
2014-Aug-11 06:25N 29°54' W 090°05'0 0.0
2014-Aug-10 10:19N 29°54' W 090°05'0 0.0
2014-Aug-10 09:30N 29°54' W 090°05'0 0.0
2014-Aug-10 08:25N 29°54' W 090°05'0 0.0
2014-Aug-10 07:33N 29°54' W 090°05'0 0.0
2014-Aug-09 07:13N 29°54' W 090°05'23 0.7
2014-Aug-08 00:05N 29°36' W 090°22'4 6.6
2014-Aug-07 23:33N 29°33' W 090°24'0 0.1
2014-Aug-07 22:31N 29°33' W 090°24'3 1.4
2014-Aug-07 20:27N 29°36' W 090°22'37 0.7
2014-Aug-05 17:33N 29°38' W 091°05'4 3.7
2014-Aug-05 16:34N 29°40' W 091°08'0 0.0
2014-Aug-05 15:33N 29°40' W 091°08'0 0.0
2014-Aug-05 14:33N 29°40' W 091°08'2 1.8
2014-Aug-05 13:33N 29°41' W 091°10'4 3.9
2014-Aug-05 12:33N 29°40' W 091°14'0 0.0
2014-Aug-05 11:33N 29°40' W 091°14'1 1.1
2014-Aug-05 10:33N 29°41' W 091°13'6 6.5
2014-Aug-05 09:33N 29°46' W 091°18'9 9.1
2014-Aug-05 08:33N 29°52' W 091°25'13 9.1
2014-Aug-05 07:06N 30°05' W 091°29'  

Dump ship's entire track history